createdAt,value
2022-11-17T14:35:57.663Z,17.77
2022-11-17T14:38:50.753Z,16.28
2022-11-17T14:41:43.812Z,14.59
2022-11-17T14:44:29.653Z,13.04
2022-11-17T14:47:25.935Z,11.73
2022-11-17T14:50:22.050Z,10.60
2022-11-17T14:53:09.647Z,9.63
2022-11-17T14:55:42.787Z,8.85
2022-11-17T14:58:35.647Z,8.23
2022-11-17T15:01:24.655Z,7.53
2022-11-17T15:03:59.334Z,7.09
2022-11-17T15:06:45.820Z,7.00
2022-11-17T15:09:20.180Z,6.67
2022-11-17T15:12:06.636Z,6.29
2022-11-17T15:14:40.339Z,5.98
2022-11-17T16:06:33.349Z,16.17
2022-11-17T16:09:21.755Z,14.25
2022-11-17T16:12:04.138Z,12.32
2022-11-17T16:14:58.766Z,10.74
2022-11-17T16:17:46.905Z,9.38
2022-11-17T16:20:21.906Z,8.31
2022-11-17T16:23:09.706Z,7.39
2022-11-17T16:25:53.848Z,6.64
2022-11-17T16:28:34.710Z,6.08
2022-11-17T16:31:31.747Z,5.54
2022-11-17T16:34:21.764Z,5.07
2022-11-17T16:37:06.435Z,4.62
2022-11-17T16:39:48.711Z,4.28
2022-11-17T16:42:30.283Z,3.99
2022-11-17T16:45:12.902Z,3.76
2022-11-17T16:47:53.854Z,3.55
2022-11-17T16:50:39.684Z,3.37
2022-11-17T16:53:29.906Z,3.21
2022-11-17T16:56:14.748Z,3.11
2022-11-17T16:58:57.070Z,2.94
2022-11-17T17:01:43.728Z,2.82
2022-11-17T17:04:47.761Z,2.76
2022-11-17T17:07:38.557Z,2.72
2022-11-17T17:10:16.024Z,2.68
2022-11-17T17:13:03.781Z,2.66
2022-11-17T17:15:39.843Z,2.63
